createdAt,value
2023-03-07T00:01:01.846Z,12.18
2023-03-07T00:03:29.128Z,11.50
2023-03-07T00:06:10.985Z,12.00
2023-03-07T00:08:39.319Z,12.30
2023-03-07T00:11:09.222Z,11.20
2023-03-07T00:13:38.365Z,11.07
2023-03-07T00:16:13.454Z,10.90
2023-03-07T00:18:41.599Z,10.13
2023-03-07T00:21:12.015Z,10.52
2023-03-07T00:23:41.096Z,9.27
2023-03-07T00:26:16.096Z,10.00
2023-03-07T00:28:43.373Z,9.73
2023-03-07T00:31:11.615Z,10.93
2023-03-07T00:33:39.751Z,10.50
2023-03-07T00:36:13.593Z,9.98
2023-03-07T00:38:42.401Z,10.05
2023-03-07T00:41:18.730Z,9.65
2023-03-07T00:43:47.337Z,8.73
2023-03-07T00:46:16.522Z,9.13
2023-03-07T00:48:44.922Z,8.70
2023-03-07T00:51:14.261Z,8.38
2023-03-07T00:53:42.032Z,8.13
2023-03-07T00:56:18.050Z,7.53
2023-03-07T00:58:46.258Z,7.47
2023-03-07T01:01:16.190Z,7.18
2023-03-07T01:03:43.614Z,7.82
2023-03-07T01:06:14.993Z,6.97
2023-03-07T01:08:42.293Z,7.03
2023-03-07T01:11:10.903Z,6.72
2023-03-07T01:13:38.742Z,6.65
2023-03-07T01:16:10.921Z,7.25
2023-03-07T01:18:38.304Z,6.88
2023-03-07T01:21:22.424Z,6.05
2023-03-07T01:23:49.964Z,6.43
2023-03-07T01:26:20.257Z,6.28
2023-03-07T01:28:47.983Z,5.43
2023-03-07T01:31:15.444Z,5.43
2023-03-07T01:33:42.726Z,5.90
2023-03-07T01:36:19.625Z,5.03
2023-03-07T01:38:49.973Z,5.47
2023-03-07T01:41:17.396Z,5.47
2023-03-07T01:43:44.564Z,5.15
2023-03-07T01:46:19.078Z,4.93
2023-03-07T01:49:01.395Z,5.20
2023-03-07T01:51:30.066Z,4.43
2023-03-07T01:53:58.929Z,5.03
2023-03-07T01:56:26.867Z,4.63
2023-03-07T01:58:54.586Z,4.60
2023-03-07T02:01:23.353Z,4.43
2023-03-07T02:04:23.017Z,3.58
2023-03-07T02:06:50.180Z,4.45
2023-03-07T02:09:21.998Z,4.10
2023-03-07T02:11:50.337Z,4.07
2023-03-07T02:14:17.739Z,4.00
2023-03-07T02:16:45.633Z,4.20
2023-03-07T02:19:30.736Z,3.90
2023-03-07T02:22:12.184Z,3.72
2023-03-07T02:24:54.559Z,4.00
2023-03-07T02:27:25.216Z,3.50
2023-03-07T02:29:53.167Z,3.90
2023-03-07T02:32:20.501Z,3.80
2023-03-07T02:34:49.738Z,4.07
2023-03-07T02:37:24.662Z,4.10
2023-03-07T02:39:53.720Z,4.30
2023-03-07T02:42:23.858Z,3.90
2023-03-07T02:45:02.147Z,4.03
2023-03-07T02:47:29.834Z,4.32
2023-03-07T02:49:56.955Z,4.80
2023-03-07T02:52:24.856Z,4.60
2023-03-07T02:54:51.988Z,4.32
2023-03-07T02:57:20.133Z,4.15
2023-03-07T02:59:47.326Z,4.45
2023-03-07T03:02:14.665Z,4.63
2023-03-07T03:04:43.318Z,4.72
2023-03-07T03:07:10.689Z,4.88
2023-03-07T03:09:37.896Z,4.65
2023-03-07T03:12:05.211Z,4.78
2023-03-07T03:14:32.651Z,4.70
2023-03-07T03:16:59.874Z,4.50
2023-03-07T03:19:29.136Z,4.18
2023-03-07T03:21:58.692Z,4.43
2023-03-07T03:24:25.869Z,3.88
2023-03-07T03:26:57.778Z,4.63
2023-03-07T03:29:26.282Z,3.70
2023-03-07T03:31:53.368Z,4.35
2023-03-07T03:34:20.437Z,4.40
2023-03-07T03:36:47.427Z,4.53
2023-03-07T03:39:14.908Z,4.75
2023-03-07T03:41:42.244Z,4.32
2023-03-07T03:44:09.480Z,4.85
2023-03-07T03:46:37.514Z,4.38
2023-03-07T03:49:05.076Z,4.85
2023-03-07T03:51:32.833Z,4.35
2023-03-07T03:53:59.917Z,4.15
2023-03-07T03:56:27.984Z,4.68
2023-03-07T03:58:56.746Z,4.68
2023-03-07T04:01:26.276Z,4.70
2023-03-07T04:03:56.581Z,4.47
2023-03-07T04:06:31.564Z,4.50
2023-03-07T04:08:59.601Z,4.32
2023-03-07T04:11:27.190Z,4.55
2023-03-07T04:13:54.430Z,4.80
2023-03-07T04:16:23.027Z,4.53
2023-03-07T04:18:51.297Z,4.22
2023-03-07T04:21:19.864Z,4.93
2023-03-07T04:23:49.729Z,4.43
2023-03-07T04:26:17.599Z,4.32
2023-03-07T04:28:49.574Z,5.60
2023-03-07T04:31:19.525Z,4.80
2023-03-07T04:33:47.079Z,4.63
2023-03-07T04:36:18.183Z,5.05
2023-03-07T04:38:47.873Z,4.90
2023-03-07T04:41:17.739Z,4.88
2023-03-07T04:43:45.233Z,5.13
2023-03-07T04:46:14.724Z,5.25
2023-03-07T04:48:42.020Z,5.18
2023-03-07T04:51:09.256Z,6.35
2023-03-07T04:53:36.839Z,6.47
2023-03-07T04:56:06.758Z,5.75
2023-03-07T04:58:33.966Z,5.03
2023-03-07T05:01:02.863Z,5.20
2023-03-07T05:03:30.580Z,4.88
2023-03-07T05:06:05.660Z,5.40
2023-03-07T05:08:33.643Z,5.53
2023-03-07T05:11:01.537Z,5.80
2023-03-07T05:13:30.020Z,5.72
2023-03-07T05:15:59.502Z,6.20
2023-03-07T05:18:28.708Z,5.45
2023-03-07T05:20:56.229Z,5.65
2023-03-07T05:23:23.396Z,5.47
2023-03-07T05:25:50.552Z,6.78
2023-03-07T05:28:19.218Z,6.10
2023-03-07T05:30:47.803Z,6.40
2023-03-07T05:33:16.403Z,6.57
2023-03-07T05:35:43.788Z,6.63
2023-03-07T05:38:11.165Z,6.13
2023-03-07T05:40:38.697Z,6.53
2023-03-07T05:43:06.121Z,6.50
2023-03-07T05:45:33.493Z,7.40
2023-03-07T05:48:02.232Z,6.97
2023-03-07T05:50:33.883Z,8.60
2023-03-07T05:53:01.130Z,6.85
2023-03-07T05:55:28.430Z,7.38
2023-03-07T05:57:55.695Z,7.65
2023-03-07T06:00:23.297Z,7.32
2023-03-07T06:02:50.635Z,15.00
2023-03-07T06:05:18.328Z,7.95
2023-03-07T06:07:45.529Z,8.35
2023-03-07T06:10:13.314Z,12.45
2023-03-07T06:12:40.788Z,8.30
2023-03-07T06:15:09.221Z,8.27
2023-03-07T06:17:37.760Z,8.55
2023-03-07T06:20:08.751Z,8.25
2023-03-07T06:22:38.521Z,7.80
2023-03-07T06:25:07.525Z,7.50
2023-03-07T06:27:36.384Z,8.43
2023-03-07T06:30:05.885Z,8.18
2023-03-07T06:32:33.579Z,7.50
2023-03-07T06:35:00.972Z,7.97
2023-03-07T06:37:28.374Z,7.82
2023-03-07T06:39:56.043Z,7.65
2023-03-07T06:42:23.447Z,8.10
2023-03-07T06:44:50.784Z,8.20
2023-03-07T06:47:18.009Z,6.90
2023-03-07T06:49:45.333Z,7.55
2023-03-07T06:52:12.552Z,8.88
2023-03-07T06:54:39.944Z,7.90
2023-03-07T06:57:07.135Z,8.13
2023-03-07T06:59:34.361Z,7.65
2023-03-07T07:02:05.023Z,8.07
2023-03-07T07:04:33.747Z,8.43
2023-03-07T07:07:01.105Z,7.95
2023-03-07T07:09:29.327Z,7.70
2023-03-07T07:11:59.771Z,7.88
2023-03-07T07:14:27.126Z,6.85
2023-03-07T07:16:54.506Z,7.07
2023-03-07T07:19:22.251Z,7.93
2023-03-07T07:21:52.544Z,7.80
2023-03-07T07:24:20.232Z,6.78
2023-03-07T07:26:47.558Z,7.05
2023-03-07T07:29:16.288Z,7.20
2023-03-07T07:31:43.824Z,7.22
2023-03-07T07:34:13.428Z,7.30
2023-03-07T07:36:40.701Z,7.80
2023-03-07T07:39:10.812Z,6.43
2023-03-07T07:41:39.074Z,7.22
2023-03-07T07:44:06.226Z,6.75
2023-03-07T07:46:33.801Z,6.70
2023-03-07T07:49:01.072Z,6.50
2023-03-07T07:51:28.311Z,6.68
2023-03-07T07:53:55.840Z,5.82
2023-03-07T07:56:23.080Z,7.15
2023-03-07T07:58:50.440Z,6.85
2023-03-07T08:01:23.890Z,6.93
2023-03-07T08:03:51.381Z,6.53
2023-03-07T08:06:23.802Z,6.53
2023-03-07T08:08:52.055Z,5.95
2023-03-07T08:11:20.562Z,5.97
2023-03-07T08:13:47.919Z,6.40
2023-03-07T08:16:18.459Z,5.75
2023-03-07T08:18:51.447Z,6.55
2023-03-07T08:21:19.113Z,5.93
2023-03-07T08:23:46.752Z,6.63
2023-03-07T08:26:14.341Z,6.97
2023-03-07T08:28:45.396Z,6.53
2023-03-07T08:31:17.236Z,6.32
2023-03-07T08:33:47.400Z,5.80
2023-03-07T08:36:15.039Z,6.30
2023-03-07T08:38:43.187Z,6.45
2023-03-07T08:41:10.720Z,6.22
2023-03-07T08:43:39.708Z,5.82
2023-03-07T08:46:07.039Z,5.78
2023-03-07T08:48:34.787Z,5.95
2023-03-07T08:51:08.263Z,7.55
2023-03-07T08:53:35.795Z,5.60
2023-03-07T08:56:10.343Z,5.70
2023-03-07T08:58:38.001Z,5.72
2023-03-07T09:01:07.278Z,5.68
2023-03-07T09:03:35.462Z,5.15
2023-03-07T09:06:04.408Z,5.00
2023-03-07T09:08:32.296Z,5.05
2023-03-07T09:11:01.325Z,4.88
2023-03-07T09:13:28.683Z,4.53
2023-03-07T09:15:56.197Z,6.82
2023-03-07T09:18:23.696Z,4.90
2023-03-07T09:20:51.131Z,4.75
2023-03-07T09:23:18.619Z,5.07
2023-03-07T09:25:45.745Z,5.20
2023-03-07T09:28:12.965Z,5.13
2023-03-07T09:30:40.006Z,5.07
2023-03-07T09:33:07.152Z,5.32
2023-03-07T09:35:34.353Z,4.85
2023-03-07T09:38:01.526Z,4.82
2023-03-07T09:40:28.663Z,5.22
2023-03-07T09:43:10.582Z,4.65
2023-03-07T09:45:42.965Z,4.65
2023-03-07T09:48:54.724Z,5.03
2023-03-07T09:51:36.156Z,5.15
2023-03-07T09:54:30.764Z,4.95
2023-03-07T09:57:00.136Z,4.95
2023-03-07T09:59:33.042Z,4.93
2023-03-07T10:02:18.214Z,4.97
2023-03-07T10:05:10.136Z,4.90
2023-03-07T10:07:37.611Z,4.20
2023-03-07T10:10:14.457Z,4.25
2023-03-07T10:12:53.855Z,4.15
2023-03-07T10:15:47.790Z,4.30
2023-03-07T10:18:29.542Z,4.47
2023-03-07T10:21:19.449Z,4.82
2023-03-07T10:24:08.342Z,4.78
2023-03-07T10:26:51.230Z,4.40
2023-03-07T10:29:19.815Z,4.28
2023-03-07T10:31:52.201Z,4.43
2023-03-07T10:34:27.428Z,4.90
2023-03-07T10:37:22.170Z,4.25
2023-03-07T10:39:55.018Z,4.22
2023-03-07T10:42:29.604Z,4.93
2023-03-07T10:44:56.672Z,4.57
2023-03-07T10:47:26.780Z,4.43
2023-03-07T10:50:02.646Z,4.60
2023-03-07T10:52:39.824Z,3.90
2023-03-07T10:55:31.780Z,4.57
2023-03-07T10:58:17.437Z,4.38
2023-03-07T11:00:44.870Z,4.68
2023-03-07T11:03:42.567Z,4.63
2023-03-07T11:06:29.052Z,4.50
2023-03-07T11:08:56.397Z,5.88
2023-03-07T11:11:30.688Z,4.35
2023-03-07T11:14:10.066Z,4.47
2023-03-07T11:16:54.932Z,4.18
2023-03-07T11:19:45.030Z,4.03
2023-03-07T11:22:38.593Z,4.28
2023-03-07T11:25:26.641Z,4.32
2023-03-07T11:27:58.244Z,4.32
2023-03-07T11:30:31.087Z,4.35
2023-03-07T11:33:02.963Z,4.40
2023-03-07T11:35:48.959Z,4.18
2023-03-07T11:38:18.846Z,4.68
2023-03-07T11:40:54.140Z,4.60
2023-03-07T11:43:25.049Z,4.80
2023-03-07T11:46:12.141Z,4.93
2023-03-07T11:48:48.478Z,5.25
2023-03-07T11:51:34.070Z,4.57
2023-03-07T11:54:37.179Z,4.72
2023-03-07T11:57:34.194Z,5.13
2023-03-07T12:00:19.879Z,4.78
2023-03-07T12:02:55.399Z,5.05
2023-03-07T12:05:51.518Z,5.40
2023-03-07T12:08:27.408Z,5.28
2023-03-07T12:11:15.018Z,6.05
2023-03-07T12:13:41.972Z,5.47
2023-03-07T12:16:29.301Z,5.25
2023-03-07T12:18:56.876Z,5.45
2023-03-07T12:21:51.088Z,5.38
2023-03-07T12:24:27.677Z,5.32
2023-03-07T12:27:30.904Z,4.82
2023-03-07T12:30:07.308Z,6.55
2023-03-07T12:32:36.503Z,5.88
2023-03-07T12:35:22.519Z,6.00
2023-03-07T12:38:26.942Z,5.78
2023-03-07T12:41:01.979Z,5.70
2023-03-07T12:43:39.430Z,5.70
2023-03-07T12:46:23.685Z,6.35
2023-03-07T12:49:23.030Z,7.13
2023-03-07T12:51:56.284Z,7.28
2023-03-07T12:54:26.690Z,8.50
2023-03-07T12:57:19.305Z,8.18
2023-03-07T12:59:46.365Z,8.18
2023-03-07T13:02:31.675Z,9.00
2023-03-07T13:05:00.926Z,9.35
2023-03-07T13:07:33.622Z,10.20
2023-03-07T13:10:05.598Z,11.75
2023-03-07T13:12:37.695Z,10.90
2023-03-07T13:15:06.340Z,11.02
2023-03-07T13:17:36.053Z,10.65
2023-03-07T13:20:30.386Z,11.75
2023-03-07T13:23:00.424Z,10.18
2023-03-07T13:25:27.910Z,10.90
2023-03-07T13:27:56.970Z,10.95
2023-03-07T13:30:30.241Z,10.95
2023-03-07T13:33:00.197Z,13.43
2023-03-07T13:35:37.851Z,11.00
2023-03-07T13:38:22.703Z,11.10
2023-03-07T13:40:55.756Z,11.48
2023-03-07T13:43:23.514Z,10.38
2023-03-07T13:45:59.695Z,9.60
2023-03-07T13:48:29.528Z,10.10
2023-03-07T13:51:00.349Z,9.63
2023-03-07T13:53:48.988Z,9.07
2023-03-07T13:56:15.971Z,9.00
2023-03-07T13:58:51.900Z,10.02
2023-03-07T14:01:31.610Z,8.85
2023-03-07T14:04:15.546Z,9.73
2023-03-07T14:06:56.082Z,8.10
2023-03-07T14:09:27.519Z,8.73
2023-03-07T14:12:09.593Z,9.23
2023-03-07T14:14:39.418Z,9.10
2023-03-07T14:17:31.134Z,8.75
2023-03-07T14:19:58.201Z,10.30
2023-03-07T14:22:53.191Z,9.77
2023-03-07T14:25:26.840Z,9.45
2023-03-07T14:28:19.624Z,9.65
2023-03-07T14:31:01.919Z,8.98
2023-03-07T14:33:35.031Z,9.38
2023-03-07T14:36:05.578Z,9.77
2023-03-07T14:38:33.161Z,9.55
2023-03-07T14:41:29.753Z,8.27
2023-03-07T14:44:19.713Z,8.85
2023-03-07T14:47:06.231Z,8.40
2023-03-07T14:49:33.339Z,8.75
2023-03-07T14:52:02.755Z,8.88
2023-03-07T14:54:33.319Z,7.65
2023-03-07T14:57:02.084Z,8.07
2023-03-07T14:59:29.681Z,8.18
2023-03-07T15:01:58.095Z,7.47
2023-03-07T15:04:28.761Z,7.93
2023-03-07T15:07:11.550Z,7.57
2023-03-07T15:09:39.908Z,9.32
2023-03-07T15:12:27.326Z,6.65
2023-03-07T15:15:02.576Z,6.68
2023-03-07T15:17:36.844Z,6.20
2023-03-07T15:20:16.586Z,6.25
2023-03-07T15:22:44.086Z,6.07
2023-03-07T15:25:25.889Z,6.75
2023-03-07T15:28:06.484Z,9.02
2023-03-07T15:30:36.694Z,6.35
2023-03-07T15:33:25.823Z,5.63
2023-03-07T15:36:11.746Z,5.20
2023-03-07T15:38:50.439Z,5.55
2023-03-07T15:41:27.698Z,5.40
2023-03-07T15:44:12.711Z,5.85
2023-03-07T15:46:49.099Z,5.00
2023-03-07T15:49:39.041Z,6.95
2023-03-07T15:52:07.825Z,5.50
2023-03-07T15:54:44.625Z,6.07
2023-03-07T15:57:19.958Z,7.78
2023-03-07T16:00:02.732Z,6.65
2023-03-07T16:02:32.877Z,7.13
2023-03-07T16:05:27.451Z,10.45
2023-03-07T16:07:56.991Z,9.13
2023-03-07T16:10:27.913Z,8.00
2023-03-07T16:12:55.321Z,7.20
2023-03-07T16:15:24.031Z,8.05
2023-03-07T16:17:56.313Z,7.40
2023-03-07T16:20:29.216Z,7.80
2023-03-07T16:22:57.222Z,8.13
2023-03-07T16:25:26.817Z,5.68
2023-03-07T16:27:57.371Z,6.25
2023-03-07T16:30:27.370Z,8.27
2023-03-07T16:32:54.821Z,34.25
2023-03-07T16:35:26.755Z,16.77
2023-03-07T16:37:54.734Z,6.30
2023-03-07T16:40:23.085Z,9.63
2023-03-07T16:42:51.027Z,13.52
2023-03-07T16:45:26.153Z,16.30
2023-03-07T16:47:56.650Z,5.70
2023-03-07T16:50:27.680Z,6.30
2023-03-07T16:52:55.186Z,8.65
2023-03-07T16:55:23.417Z,7.85
2023-03-07T16:57:56.507Z,7.32
2023-03-07T17:00:25.629Z,7.17
2023-03-07T17:02:54.442Z,6.18
2023-03-07T17:05:27.473Z,5.05
2023-03-07T17:07:56.631Z,6.00
2023-03-07T17:10:26.688Z,6.15
2023-03-07T17:12:56.393Z,6.75
2023-03-07T17:15:31.250Z,5.80
2023-03-07T17:18:00.106Z,6.82
2023-03-07T17:20:28.050Z,6.45
2023-03-07T17:22:55.461Z,7.70
2023-03-07T17:25:23.433Z,8.52
2023-03-07T17:28:04.038Z,6.28
2023-03-07T17:30:33.184Z,6.00
2023-03-07T17:33:01.165Z,7.97
2023-03-07T17:35:30.632Z,9.20
2023-03-07T17:37:57.917Z,7.85
2023-03-07T17:40:24.935Z,6.50
2023-03-07T17:42:54.848Z,6.28
2023-03-07T17:45:22.382Z,5.88
2023-03-07T17:47:54.172Z,4.65
2023-03-07T17:50:25.729Z,6.60
2023-03-07T17:52:54.492Z,5.05
2023-03-07T17:55:25.200Z,5.25
2023-03-07T17:57:52.446Z,5.25
2023-03-07T18:00:21.111Z,5.28
2023-03-07T18:02:48.441Z,5.25
2023-03-07T18:05:15.617Z,4.72
2023-03-07T18:07:42.730Z,5.85
2023-03-07T18:10:12.922Z,5.90
2023-03-07T18:12:40.189Z,9.77
2023-03-07T18:15:12.242Z,7.90
2023-03-07T18:17:47.917Z,11.40
2023-03-07T18:20:20.120Z,10.32
2023-03-07T18:22:49.159Z,9.70
2023-03-07T18:25:18.046Z,9.82
2023-03-07T18:27:45.857Z,10.80
2023-03-07T18:30:14.290Z,9.00
2023-03-07T18:32:41.564Z,8.18
2023-03-07T18:35:09.139Z,11.32
2023-03-07T18:37:37.154Z,11.57
2023-03-07T18:40:05.001Z,8.63
2023-03-07T18:42:32.827Z,9.13
2023-03-07T18:44:59.892Z,10.23
2023-03-07T18:47:26.939Z,11.32
2023-03-07T18:49:54.027Z,11.93
2023-03-07T18:52:21.074Z,12.32
2023-03-07T18:54:49.229Z,12.93
2023-03-07T18:57:16.364Z,14.30
2023-03-07T18:59:43.449Z,52.97
2023-03-07T19:02:12.139Z,12.32
2023-03-07T19:04:39.310Z,11.05
2023-03-07T19:07:07.330Z,10.85
2023-03-07T19:09:34.391Z,12.90
2023-03-07T19:12:01.474Z,14.48
2023-03-07T19:14:28.575Z,15.98
2023-03-07T19:16:55.657Z,14.60
2023-03-07T19:19:23.208Z,13.70
2023-03-07T19:21:51.315Z,15.55
2023-03-07T19:24:18.411Z,13.90
2023-03-07T19:26:49.175Z,17.85
2023-03-07T19:29:16.269Z,24.67
2023-03-07T19:31:46.275Z,22.17
2023-03-07T19:34:13.445Z,17.58
2023-03-07T19:36:41.831Z,16.55
2023-03-07T19:39:14.729Z,21.08
2023-03-07T19:41:44.059Z,16.95
2023-03-07T19:44:12.340Z,16.67
2023-03-07T19:46:39.737Z,23.25
2023-03-07T19:49:08.149Z,13.98
2023-03-07T19:51:35.288Z,14.85
2023-03-07T19:54:04.119Z,12.63
2023-03-07T19:56:32.345Z,14.57
2023-03-07T19:59:01.590Z,15.00
2023-03-07T20:01:30.925Z,13.90
2023-03-07T20:03:59.190Z,17.63
2023-03-07T20:06:30.917Z,13.45
2023-03-07T20:09:02.321Z,12.50
2023-03-07T20:11:41.040Z,15.93
2023-03-07T20:14:10.773Z,12.25
2023-03-07T20:16:40.480Z,12.00
2023-03-07T20:19:12.274Z,10.63
2023-03-07T20:21:40.509Z,10.90
2023-03-07T20:24:08.626Z,9.80
2023-03-07T20:26:39.280Z,10.35
2023-03-07T20:29:15.951Z,9.98
2023-03-07T20:31:47.609Z,11.10
2023-03-07T20:34:14.628Z,10.00
2023-03-07T20:36:45.535Z,11.15
2023-03-07T20:39:16.067Z,10.95
2023-03-07T20:41:44.161Z,8.57
2023-03-07T20:44:14.151Z,7.80
2023-03-07T20:46:42.208Z,7.35
2023-03-07T20:49:13.256Z,8.18
2023-03-07T20:51:44.640Z,7.82
2023-03-07T20:54:14.796Z,8.05
2023-03-07T20:56:42.867Z,7.53
2023-03-07T20:59:18.478Z,6.20
2023-03-07T21:01:46.739Z,6.45
2023-03-07T21:04:15.929Z,6.57
2023-03-07T21:06:50.314Z,6.95
2023-03-07T21:09:18.725Z,8.07
2023-03-07T21:11:49.172Z,8.50
2023-03-07T21:14:18.427Z,10.10
2023-03-07T21:16:45.999Z,7.88
2023-03-07T21:19:13.938Z,9.35
2023-03-07T21:21:42.030Z,8.98
2023-03-07T21:24:12.164Z,8.75
2023-03-07T21:26:39.967Z,7.15
2023-03-07T21:29:09.246Z,7.20
2023-03-07T21:31:38.954Z,7.07
2023-03-07T21:34:08.960Z,7.32
2023-03-07T21:36:37.169Z,8.13
2023-03-07T21:39:05.671Z,9.50
2023-03-07T21:41:32.898Z,12.85
2023-03-07T21:44:02.742Z,10.13
2023-03-07T21:46:29.868Z,10.23
2023-03-07T21:48:59.492Z,9.95
2023-03-07T21:51:26.693Z,8.68
2023-03-07T21:53:54.672Z,9.48
2023-03-07T21:56:23.666Z,8.50
2023-03-07T21:58:51.233Z,9.00
2023-03-07T22:01:24.997Z,8.45
2023-03-07T22:03:53.883Z,8.50
2023-03-07T22:06:22.059Z,7.60
2023-03-07T22:08:50.118Z,7.10
2023-03-07T22:11:17.356Z,7.70
2023-03-07T22:13:44.383Z,6.95
2023-03-07T22:16:17.322Z,7.60
2023-03-07T22:18:44.594Z,8.68
2023-03-07T22:21:14.294Z,8.18
2023-03-07T22:23:42.178Z,8.20
2023-03-07T22:26:11.431Z,7.93
2023-03-07T22:28:40.699Z,8.75
2023-03-07T22:31:10.724Z,8.90
2023-03-07T22:33:38.685Z,8.15
2023-03-07T22:36:08.092Z,8.02
2023-03-07T22:38:35.621Z,8.60
2023-03-07T22:41:11.364Z,9.75
2023-03-07T22:43:38.743Z,9.85
2023-03-07T22:46:06.305Z,9.82
2023-03-07T22:48:33.922Z,10.63
2023-03-07T22:51:01.564Z,12.07
2023-03-07T22:53:31.078Z,11.57
2023-03-07T22:56:01.628Z,11.68
2023-03-07T22:58:30.677Z,12.07
2023-03-07T23:00:57.861Z,12.88
2023-03-07T23:03:25.091Z,12.30
2023-03-07T23:05:52.176Z,11.88
2023-03-07T23:08:19.360Z,12.35
2023-03-07T23:10:46.340Z,12.43
2023-03-07T23:13:14.017Z,12.05
2023-03-07T23:15:41.842Z,11.60
2023-03-07T23:18:09.073Z,11.75
2023-03-07T23:20:39.193Z,12.00
2023-03-07T23:23:06.423Z,11.40
2023-03-07T23:25:33.667Z,11.88
2023-03-07T23:28:00.864Z,11.02
2023-03-07T23:30:27.960Z,11.07
2023-03-07T23:32:55.571Z,10.68
2023-03-07T23:35:24.075Z,11.13
2023-03-07T23:37:51.127Z,10.63
2023-03-07T23:40:18.396Z,12.23
2023-03-07T23:42:47.533Z,12.65
2023-03-07T23:45:14.840Z,11.57
2023-03-07T23:47:41.908Z,12.38
2023-03-07T23:50:10.211Z,12.77
2023-03-07T23:52:37.290Z,11.00
2023-03-07T23:55:06.363Z,11.93
2023-03-07T23:57:33.442Z,12.48
